createdAt,value
2023-04-26T00:02:09.595Z,1.58
2023-04-26T00:06:14.493Z,1.37
2023-04-26T00:10:16.271Z,2.03
2023-04-26T00:14:18.042Z,1.50
2023-04-26T00:18:19.752Z,1.70
2023-04-26T00:22:21.477Z,1.60
2023-04-26T00:26:23.490Z,1.60
2023-04-26T00:30:25.148Z,1.62
2023-04-26T00:34:35.995Z,1.52
2023-04-26T00:38:37.636Z,1.70
2023-04-26T00:42:40.378Z,1.55
2023-04-26T00:46:42.023Z,1.67
2023-04-26T00:50:44.227Z,1.65
2023-04-26T00:54:46.021Z,1.30
2023-04-26T00:58:47.695Z,1.87
2023-04-26T01:02:49.444Z,1.80
2023-04-26T01:06:51.286Z,1.50
2023-04-26T01:10:54.386Z,1.60
2023-04-26T01:14:57.259Z,1.77
2023-04-26T01:19:06.788Z,1.77
2023-04-26T01:23:11.735Z,1.45
2023-04-26T01:27:13.503Z,1.70
2023-04-26T01:31:16.058Z,1.92
2023-04-26T01:35:17.931Z,1.90
2023-04-26T01:39:19.635Z,1.67
2023-04-26T01:43:22.891Z,1.90
2023-04-26T01:47:26.265Z,1.98
2023-04-26T01:51:28.005Z,1.60
2023-04-26T01:55:29.639Z,1.80
2023-04-26T01:59:31.422Z,1.73
2023-04-26T02:03:33.271Z,2.00
2023-04-26T02:07:35.611Z,2.10
2023-04-26T02:11:37.348Z,1.85
2023-04-26T02:15:39.114Z,2.20
2023-04-26T02:19:40.814Z,2.10
2023-04-26T02:23:42.527Z,2.15
2023-04-26T02:27:44.204Z,1.87
2023-04-26T02:31:45.960Z,2.30
2023-04-26T02:35:47.845Z,2.10
2023-04-26T02:39:52.466Z,1.85
2023-04-26T02:43:54.119Z,1.55
2023-04-26T02:47:55.910Z,1.92
2023-04-26T02:51:57.587Z,2.12
2023-04-26T02:56:00.805Z,2.20
2023-04-26T03:00:02.462Z,2.22
2023-04-26T03:04:04.418Z,2.20
2023-04-26T03:08:06.460Z,2.45
2023-04-26T03:12:08.678Z,2.03
2023-04-26T03:16:11.024Z,2.20
2023-04-26T03:20:13.791Z,2.67
2023-04-26T03:24:15.444Z,2.85
2023-04-26T03:28:17.897Z,2.65
2023-04-26T03:32:19.526Z,2.72
2023-04-26T03:36:21.202Z,2.25
2023-04-26T03:40:22.852Z,3.30
2023-04-26T03:44:24.574Z,2.80
2023-04-26T03:48:27.069Z,2.95
2023-04-26T03:52:28.721Z,2.47
2023-04-26T03:56:30.366Z,2.75
2023-04-26T04:00:32.005Z,2.60
2023-04-26T04:04:33.864Z,2.72
2023-04-26T04:08:35.654Z,3.00
2023-04-26T04:12:37.821Z,3.03
2023-04-26T04:16:39.485Z,3.08
2023-04-26T04:20:41.803Z,2.92
2023-04-26T04:24:44.167Z,3.00
2023-04-26T04:28:47.034Z,3.08
2023-04-26T04:32:48.881Z,3.28
2023-04-26T04:36:50.632Z,3.35
2023-04-26T04:40:52.326Z,3.28
2023-04-26T04:44:55.009Z,3.40
2023-04-26T04:48:56.637Z,3.30
2023-04-26T04:52:58.396Z,3.40
2023-04-26T04:57:01.120Z,3.85
2023-04-26T05:01:02.796Z,3.70
2023-04-26T05:05:05.284Z,3.83
2023-04-26T05:09:08.483Z,4.28
2023-04-26T05:13:10.246Z,5.32
2023-04-26T05:17:12.277Z,5.15
2023-04-26T05:21:13.972Z,3.85
2023-04-26T05:25:17.082Z,5.22
2023-04-26T05:29:18.769Z,4.95
2023-04-26T05:33:20.526Z,4.97
2023-04-26T05:37:22.282Z,4.45
2023-04-26T05:41:23.955Z,5.03
2023-04-26T05:45:25.644Z,4.87
2023-04-26T05:49:27.320Z,5.18
2023-04-26T05:53:28.989Z,5.65
2023-04-26T05:57:30.834Z,5.22
2023-04-26T06:01:32.601Z,5.47
2023-04-26T06:05:35.901Z,4.53
2023-04-26T06:09:37.569Z,5.05
2023-04-26T06:13:39.370Z,5.70
2023-04-26T06:17:41.860Z,11.18
2023-04-26T06:21:43.633Z,11.63
2023-04-26T06:25:45.632Z,12.27
2023-04-26T06:29:47.585Z,13.13
2023-04-26T06:33:49.324Z,12.35
2023-04-26T06:37:51.288Z,12.65
2023-04-26T06:41:53.098Z,13.00
2023-04-26T06:45:55.096Z,12.40
2023-04-26T06:49:56.791Z,11.75
2023-04-26T06:54:01.259Z,11.35
2023-04-26T06:58:03.189Z,11.43
2023-04-26T07:02:04.985Z,11.73
2023-04-26T07:06:06.675Z,11.25
2023-04-26T07:10:09.423Z,11.57
2023-04-26T07:14:11.840Z,10.82
2023-04-26T07:18:13.603Z,10.13
2023-04-26T07:22:15.299Z,9.63
2023-04-26T07:26:16.927Z,7.20
2023-04-26T07:30:18.569Z,6.43
2023-04-26T07:34:20.267Z,6.35
2023-04-26T07:38:22.050Z,6.78
2023-04-26T07:42:23.699Z,5.70
2023-04-26T07:46:25.472Z,6.93
2023-04-26T07:50:27.209Z,7.80
2023-04-26T07:54:28.912Z,4.00
2023-04-26T07:58:32.833Z,3.90
2023-04-26T08:02:44.484Z,6.10
2023-04-26T08:06:48.521Z,4.75
2023-04-26T08:10:50.674Z,3.65
2023-04-26T08:14:52.367Z,3.25
2023-04-26T08:18:55.269Z,3.50
2023-04-26T08:22:57.103Z,3.35
2023-04-26T08:26:59.086Z,2.40
2023-04-26T08:31:00.846Z,2.70
2023-04-26T08:35:02.942Z,3.00
2023-04-26T08:39:04.987Z,2.00
2023-04-26T08:43:08.876Z,2.42
2023-04-26T08:47:34.834Z,2.22
2023-04-26T08:51:37.307Z,2.87
2023-04-26T08:55:40.753Z,2.67
2023-04-26T08:59:44.156Z,1.90
2023-04-26T09:03:46.789Z,1.75
2023-04-26T09:07:49.591Z,1.90
2023-04-26T09:11:59.744Z,1.95
2023-04-26T09:16:04.106Z,2.33
2023-04-26T09:20:40.297Z,2.10
2023-04-26T09:24:50.414Z,2.50
2023-04-26T09:29:14.630Z,2.70
2023-04-26T09:33:16.640Z,2.10
2023-04-26T09:37:18.394Z,2.25
2023-04-26T09:41:20.343Z,2.00
2023-04-26T09:45:22.089Z,1.90
2023-04-26T09:49:23.790Z,2.08
2023-04-26T09:53:31.537Z,1.92
2023-04-26T09:57:42.328Z,1.85
2023-04-26T10:01:44.036Z,1.90
2023-04-26T10:05:46.386Z,2.10
2023-04-26T10:09:49.115Z,2.55
2023-04-26T10:13:51.717Z,1.98
2023-04-26T10:17:53.468Z,2.40
2023-04-26T10:21:59.939Z,2.15
2023-04-26T10:26:01.615Z,2.67
2023-04-26T10:30:04.207Z,1.73
2023-04-26T10:34:19.804Z,1.70
2023-04-26T10:38:21.487Z,1.73
2023-04-26T10:42:28.139Z,1.70
2023-04-26T10:46:40.553Z,2.17
2023-04-26T10:51:11.893Z,1.98
2023-04-26T10:55:43.016Z,2.08
2023-04-26T11:00:13.681Z,1.95
2023-04-26T11:04:16.437Z,1.60
2023-04-26T11:08:20.854Z,1.92
2023-04-26T11:12:22.495Z,2.20
2023-04-26T11:16:29.166Z,2.10
2023-04-26T11:20:32.104Z,1.85
2023-04-26T11:24:41.842Z,1.80
2023-04-26T11:28:45.098Z,2.20
2023-04-26T11:32:47.023Z,1.95
2023-04-26T11:36:48.824Z,1.85
2023-04-26T11:40:56.995Z,1.50
2023-04-26T11:44:59.517Z,1.62
2023-04-26T11:49:01.265Z,2.37
2023-04-26T11:53:05.930Z,1.65
2023-04-26T11:57:18.430Z,1.65
2023-04-26T12:01:25.002Z,2.10
2023-04-26T12:05:30.479Z,1.50
2023-04-26T12:09:32.855Z,2.03
2023-04-26T12:13:34.490Z,1.55
2023-04-26T12:17:36.452Z,1.60
2023-04-26T12:21:42.900Z,1.58
2023-04-26T12:25:55.827Z,2.17
2023-04-26T12:29:57.642Z,2.03
2023-04-26T12:33:59.285Z,1.60
2023-04-26T12:38:01.544Z,2.28
2023-04-26T12:42:03.522Z,1.98
2023-04-26T12:46:05.342Z,2.12
2023-04-26T12:50:07.583Z,1.65
2023-04-26T12:54:09.217Z,2.08
2023-04-26T12:58:11.329Z,2.20
2023-04-26T13:02:13.336Z,2.10
2023-04-26T13:06:15.130Z,3.03
2023-04-26T13:10:17.344Z,2.80
2023-04-26T13:14:18.934Z,2.92
2023-04-26T13:18:21.013Z,2.58
2023-04-26T13:22:22.654Z,2.65
2023-04-26T13:26:25.829Z,2.70
2023-04-26T13:30:29.302Z,2.28
2023-04-26T13:34:31.149Z,2.37
2023-04-26T13:38:33.125Z,2.20
2023-04-26T13:42:34.845Z,2.33
2023-04-26T13:46:36.751Z,2.53
2023-04-26T13:50:38.438Z,2.75
2023-04-26T13:54:40.116Z,2.40
2023-04-26T13:58:43.264Z,2.60
2023-04-26T14:02:45.077Z,2.65
2023-04-26T14:06:46.834Z,2.92
2023-04-26T14:10:48.472Z,3.45
2023-04-26T14:14:50.609Z,2.62
2023-04-26T14:18:52.626Z,3.10
2023-04-26T14:22:54.393Z,2.00
2023-04-26T14:26:56.284Z,2.28
2023-04-26T14:30:57.938Z,1.60
2023-04-26T14:34:59.573Z,1.90
2023-04-26T14:39:01.220Z,2.37
2023-04-26T14:43:03.200Z,2.10
2023-04-26T14:47:04.943Z,2.83
2023-04-26T14:51:06.698Z,2.33
2023-04-26T14:55:08.606Z,2.42
2023-04-26T14:59:10.222Z,2.00
2023-04-26T15:03:12.121Z,2.55
2023-04-26T15:07:28.376Z,2.25
2023-04-26T15:11:33.488Z,2.53
2023-04-26T15:15:35.253Z,2.80
2023-04-26T15:19:36.876Z,2.95
2023-04-26T15:23:38.557Z,2.90
2023-04-26T15:27:41.040Z,2.78
2023-04-26T15:31:42.710Z,2.90
2023-04-26T15:35:44.360Z,2.83
2023-04-26T15:39:47.245Z,3.25
2023-04-26T15:43:54.661Z,5.12
2023-04-26T15:47:57.054Z,3.70
2023-04-26T15:51:58.993Z,4.35
2023-04-26T15:56:01.157Z,3.62
2023-04-26T16:00:03.173Z,2.80
2023-04-26T16:04:05.184Z,2.80
2023-04-26T16:08:07.041Z,2.80
2023-04-26T16:12:08.695Z,2.80
2023-04-26T16:16:10.754Z,3.28
2023-04-26T16:20:12.789Z,3.10
2023-04-26T16:24:14.437Z,2.80
2023-04-26T16:28:16.153Z,2.65
2023-04-26T16:32:17.820Z,6.12
2023-04-26T16:36:19.469Z,2.50
2023-04-26T16:40:21.493Z,2.97
2023-04-26T16:44:25.021Z,2.67
2023-04-26T16:48:27.079Z,2.40
2023-04-26T16:52:28.695Z,2.40
2023-04-26T16:56:30.438Z,2.60
2023-04-26T17:00:32.337Z,2.50
2023-04-26T17:04:34.268Z,2.70
2023-04-26T17:08:36.774Z,2.75
2023-04-26T17:12:38.427Z,3.22
2023-04-26T17:16:40.177Z,2.65
2023-04-26T17:20:42.204Z,3.12
2023-04-26T17:24:43.866Z,2.80
2023-04-26T17:28:45.755Z,2.42
2023-04-26T17:32:47.485Z,2.55
2023-04-26T17:36:49.168Z,2.45
2023-04-26T17:40:54.448Z,3.05
2023-04-26T17:44:56.281Z,2.40
2023-04-26T17:48:59.614Z,3.37
2023-04-26T17:53:01.855Z,2.53
2023-04-26T17:57:04.659Z,2.78
2023-04-26T18:01:06.256Z,2.92
2023-04-26T18:05:10.932Z,2.97
2023-04-26T18:09:12.721Z,2.53
2023-04-26T18:13:14.686Z,2.65
2023-04-26T18:17:16.580Z,2.58
2023-04-26T18:21:18.279Z,2.92
2023-04-26T18:25:19.908Z,2.75
2023-04-26T18:29:21.614Z,2.75
2023-04-26T18:33:23.538Z,2.85
2023-04-26T18:37:25.706Z,2.72
2023-04-26T18:41:27.407Z,2.25
2023-04-26T18:45:29.119Z,2.97
2023-04-26T18:49:30.811Z,2.30
2023-04-26T18:53:32.470Z,2.70
2023-04-26T18:57:34.094Z,2.72
2023-04-26T19:01:35.873Z,2.28
2023-04-26T19:05:41.864Z,2.65
2023-04-26T19:09:53.673Z,2.50
2023-04-26T19:13:56.467Z,2.30
2023-04-26T19:17:58.429Z,2.65
2023-04-26T19:22:01.000Z,2.03
2023-04-26T19:26:10.007Z,2.42
2023-04-26T19:30:12.252Z,2.90
2023-04-26T19:34:14.195Z,2.78
2023-04-26T19:38:16.486Z,2.35
2023-04-26T19:42:18.148Z,2.62
2023-04-26T19:46:19.901Z,2.55
2023-04-26T19:50:21.729Z,2.87
2023-04-26T19:54:23.676Z,2.58
2023-04-26T19:58:25.816Z,5.20
2023-04-26T20:02:27.761Z,8.05
2023-04-26T20:06:29.709Z,3.00
2023-04-26T20:10:33.354Z,3.08
2023-04-26T20:14:35.021Z,3.08
2023-04-26T20:18:37.157Z,2.75
2023-04-26T20:22:42.081Z,3.05
2023-04-26T20:26:43.869Z,3.65
2023-04-26T20:30:45.648Z,3.25
2023-04-26T20:34:47.568Z,3.78
2023-04-26T20:38:49.387Z,3.30
2023-04-26T20:42:51.394Z,3.37
2023-04-26T20:46:54.045Z,3.03
2023-04-26T20:50:56.897Z,3.08
2023-04-26T20:54:58.564Z,3.25
2023-04-26T20:59:00.251Z,2.70
2023-04-26T21:03:02.027Z,2.80
2023-04-26T21:07:03.877Z,3.10
2023-04-26T21:11:06.247Z,3.47
2023-04-26T21:15:08.480Z,3.72
2023-04-26T21:19:10.632Z,3.05
2023-04-26T21:23:12.562Z,3.20
2023-04-26T21:27:14.202Z,3.35
2023-04-26T21:31:15.985Z,2.97
2023-04-26T21:35:17.669Z,3.15
2023-04-26T21:39:19.375Z,3.87
2023-04-26T21:43:21.723Z,2.87
2023-04-26T21:47:23.535Z,3.42
2023-04-26T21:51:25.390Z,3.70
2023-04-26T21:55:27.034Z,3.20
2023-04-26T21:59:28.676Z,3.67
2023-04-26T22:03:30.443Z,3.67
2023-04-26T22:07:32.503Z,3.90
2023-04-26T22:11:34.153Z,3.92
2023-04-26T22:15:36.398Z,4.03
2023-04-26T22:19:38.073Z,3.70
2023-04-26T22:23:39.803Z,3.80
2023-04-26T22:27:41.453Z,3.45
2023-04-26T22:31:43.148Z,3.53
2023-04-26T22:35:44.866Z,4.10
2023-04-26T22:39:46.541Z,3.42
2023-04-26T22:43:48.188Z,4.07
2023-04-26T22:47:49.942Z,4.30
2023-04-26T22:52:04.217Z,4.30
2023-04-26T22:56:11.275Z,4.00
2023-04-26T23:00:14.464Z,3.78
2023-04-26T23:04:16.458Z,4.00
2023-04-26T23:08:18.082Z,4.65
2023-04-26T23:12:23.556Z,4.22
2023-04-26T23:16:25.396Z,3.90
2023-04-26T23:20:27.131Z,4.40
2023-04-26T23:24:28.782Z,4.47
2023-04-26T23:28:30.754Z,4.03
2023-04-26T23:32:32.428Z,4.45
2023-04-26T23:36:34.153Z,4.22
2023-04-26T23:40:37.046Z,5.05
2023-04-26T23:44:38.696Z,4.68
2023-04-26T23:48:40.860Z,4.72
2023-04-26T23:52:42.522Z,5.18
2023-04-26T23:56:44.213Z,4.55
